Time;durP1;ratioP1;P1;durP2;ratioP2;P2;SDS_P1;SDS_P2;PMS_P1;PMS_P2;Temp;Humidity;BMP_temperature;BMP_pressure;BME280_temperature;BME280_humidity;BME280_pressure;Samples;Min_cycle;Max_cycle;Signal;HPM_P1;HPM_P2
2023/04/18 00:01:33;;;;;;;0.85;0.85;;;;;;;6.40;40.36;102466.84;5103425;28;20016;-60
2023/04/18 00:04:00;;;;;;;0.40;0.40;;;;;;;6.34;40.34;102466.59;5103409;28;20107;-59
2023/04/18 00:06:28;;;;;;;0.40;0.40;;;;;;;6.30;40.69;102472.41;5106951;28;20087;-60
2023/04/18 00:08:54;;;;;;;0.50;0.50;;;;;;;6.28;40.73;102474.03;5107047;28;20024;-56
2023/04/18 00:11:20;;;;;;;1.02;1.02;;;;;;;6.27;40.88;102482.63;5107235;28;20059;-59
2023/04/18 00:13:46;;;;;;;2.17;1.95;;;;;;;6.23;41.12;102485.88;5107117;28;20131;-56
2023/04/18 00:16:12;;;;;;;0.50;0.50;;;;;;;6.16;41.18;102477.88;5106996;28;20021;-58
2023/04/18 00:18:38;;;;;;;0.40;0.40;;;;;;;6.14;41.53;102484.66;5107057;28;20494;-57
2023/04/18 00:21:05;;;;;;;0.50;0.50;;;;;;;6.10;41.68;102487.94;5107310;28;20020;-58
2023/04/18 00:23:32;;;;;;;0.50;0.50;;;;;;;6.11;41.70;102489.69;5107008;28;20047;-60
2023/04/18 00:25:57;;;;;;;0.40;0.40;;;;;;;6.09;41.59;102480.13;5106747;28;20016;-55
2023/04/18 00:28:23;;;;;;;0.50;0.50;;;;;;;6.06;41.43;102486.03;5105367;28;20050;-58
2023/04/18 00:30:49;;;;;;;0.50;0.50;;;;;;;6.03;41.48;102488.44;5106653;28;20102;-57
2023/04/18 00:33:15;;;;;;;0.50;0.50;;;;;;;6.01;41.71;102485.78;5106366;28;20052;-59
2023/04/18 00:35:40;;;;;;;0.50;0.50;;;;;;;5.95;41.73;102483.84;5106516;28;20022;-59
2023/04/18 00:38:05;;;;;;;0.50;0.50;;;;;;;5.98;42.10;102487.34;5106169;28;20046;-59
2023/04/18 00:40:31;;;;;;;0.50;0.50;;;;;;;5.95;41.92;102489.00;5106247;28;20020;-59
2023/04/18 00:42:56;;;;;;;0.40;0.40;;;;;;;5.91;41.88;102489.66;5106481;28;20475;-55
2023/04/18 00:45:21;;;;;;;0.50;0.50;;;;;;;5.90;42.51;102490.47;5106331;28;20024;-59
2023/04/18 00:47:47;;;;;;;0.50;0.50;;;;;;;5.88;42.58;102497.25;5106388;28;20440;-59
2023/04/18 00:50:13;;;;;;;0.60;0.60;;;;;;;5.84;42.45;102500.50;5106362;28;20020;-59
2023/04/18 00:52:40;;;;;;;0.50;0.50;;;;;;;5.81;42.58;102505.53;5106105;28;20034;-59
2023/04/18 00:55:06;;;;;;;0.50;0.50;;;;;;;5.79;42.73;102502.88;5106413;28;20050;-57
2023/04/18 00:57:32;;;;;;;0.40;0.40;;;;;;;5.75;42.60;102500.97;5104225;28;20024;-60
2023/04/18 01:00:09;;;;;;;0.50;0.50;;;;;;;5.73;42.61;102506.88;5105184;28;20031;-60
2023/04/18 01:02:35;;;;;;;0.50;0.50;;;;;;;5.68;42.54;102504.97;5104935;28;20020;-59
2023/04/18 01:05:02;;;;;;;0.50;0.50;;;;;;;5.68;42.36;102515.28;5106131;28;20031;-59
2023/04/18 01:07:29;;;;;;;0.40;0.40;;;;;;;5.66;42.40;102503.13;5104207;28;20197;-58
2023/04/18 01:09:56;;;;;;;0.50;0.50;;;;;;;5.63;42.43;102510.72;5104748;28;20027;-58
2023/04/18 01:12:21;;;;;;;0.50;0.50;;;;;;;5.62;42.49;102504.69;5105788;28;20031;-58
2023/04/18 01:14:47;;;;;;;0.50;0.50;;;;;;;5.57;42.87;102509.59;5105995;28;20020;-58
2023/04/18 01:17:12;;;;;;;0.50;0.50;;;;;;;5.56;43.00;102514.69;5105031;28;20035;-58
2023/04/18 01:19:41;;;;;;;0.50;0.50;;;;;;;5.53;43.07;102519.69;5105913;28;20020;-57
2023/04/18 01:22:07;;;;;;;0.50;0.50;;;;;;;5.54;43.46;102517.19;5105569;28;20092;-59
2023/04/18 01:24:33;;;;;;;0.50;0.50;;;;;;;5.54;43.44;102531.78;5086363;28;20035;-59
2023/04/18 01:26:58;;;;;;;0.50;0.50;;;;;;;5.53;43.38;102523.16;5105334;28;20028;-58
2023/04/18 01:29:24;;;;;;;0.43;0.43;;;;;;;5.54;43.79;102516.34;5105611;28;20047;-59
2023/04/18 01:31:50;;;;;;;0.60;0.60;;;;;;;5.53;43.63;102530.00;5105254;28;20040;-59
2023/04/18 01:34:19;;;;;;;0.50;0.50;;;;;;;5.50;43.98;102529.88;5105494;28;20073;-59
2023/04/18 01:36:45;;;;;;;3.90;2.97;;;;;;;5.48;43.78;102531.50;5105236;28;20049;-56
2023/04/18 01:39:11;;;;;;;0.40;0.40;;;;;;;5.48;44.30;102544.38;5105355;28;20080;-58
2023/04/18 01:41:36;;;;;;;0.40;0.40;;;;;;;5.46;44.32;102550.34;5105481;28;20079;-59
2023/04/18 01:44:02;;;;;;;0.50;0.50;;;;;;;5.43;44.44;102544.19;5105346;28;20024;-59
2023/04/18 01:46:27;;;;;;;0.88;0.88;;;;;;;5.38;44.49;102550.78;5105155;28;20031;-58
2023/04/18 01:48:53;;;;;;;0.50;0.50;;;;;;;5.36;44.70;102550.72;5105057;28;20023;-57
2023/04/18 01:51:18;;;;;;;3.80;2.50;;;;;;;5.31;44.74;102547.03;5105132;28;20020;-57
2023/04/18 01:53:44;;;;;;;0.40;0.40;;;;;;;5.30;44.75;102543.56;5105014;28;20099;-57
2023/04/18 01:56:09;;;;;;;0.50;0.50;;;;;;;5.28;44.69;102542.63;5104017;28;20531;-58
2023/04/18 01:58:35;;;;;;;0.50;0.50;;;;;;;5.28;44.83;102534.91;5085190;28;20052;-59
2023/04/18 02:01:01;;;;;;;0.50;0.50;;;;;;;5.23;44.38;102538.94;5104911;28;20016;-56
2023/04/18 02:03:27;;;;;;;0.50;0.50;;;;;;;5.24;44.68;102537.25;5105129;28;20016;-59
2023/04/18 02:05:52;;;;;;;0.50;0.50;;;;;;;5.20;44.46;102542.25;5104859;28;20434;-59
2023/04/18 02:08:18;;;;;;;0.50;0.50;;;;;;;5.20;44.43;102543.94;5104816;28;20020;-58
2023/04/18 02:10:44;;;;;;;0.50;0.50;;;;;;;5.17;44.22;102547.25;5104727;28;20028;-60
2023/04/18 02:13:09;;;;;;;0.50;0.50;;;;;;;5.15;44.06;102543.72;5104984;28;20478;-56
2023/04/18 02:15:35;;;;;;;0.47;0.47;;;;;;;5.16;44.30;102549.75;5104911;28;20493;-59
2023/04/18 02:18:01;;;;;;;0.50;0.50;;;;;;;5.13;44.48;102549.63;5104804;28;20511;-58
2023/04/18 02:20:30;;;;;;;0.50;0.50;;;;;;;5.12;44.61;102553.88;5104684;28;20023;-57
2023/04/18 02:22:59;;;;;;;0.40;0.40;;;;;;;5.10;44.63;102549.47;5104484;28;20035;-60
2023/04/18 02:25:26;;;;;;;0.40;0.40;;;;;;;5.05;44.89;102552.69;5104482;28;20048;-60
2023/04/18 02:27:53;;;;;;;0.80;0.80;;;;;;;5.03;44.75;102544.00;5102666;28;20173;-59
2023/04/18 02:30:18;;;;;;;0.40;0.40;;;;;;;5.02;44.65;102554.22;5104503;28;20050;-59
2023/04/18 02:32:43;;;;;;;0.50;0.50;;;;;;;4.99;44.67;102547.22;5104174;28;20515;-59
2023/04/18 02:35:09;;;;;;;0.40;0.40;;;;;;;4.98;44.63;102554.88;5102923;28;20376;-58
2023/04/18 02:37:35;;;;;;;0.47;0.47;;;;;;;4.96;44.69;102544.50;5104003;28;20028;-60
2023/04/18 02:40:00;;;;;;;0.50;0.50;;;;;;;4.95;44.46;102543.63;5104345;28;20023;-59
2023/04/18 02:42:26;;;;;;;0.40;0.40;;;;;;;4.94;44.59;102544.44;5104250;28;20087;-59
2023/04/18 02:44:51;;;;;;;0.43;0.43;;;;;;;4.91;44.47;102545.97;5104001;28;20103;-59
2023/04/18 02:47:16;;;;;;;0.50;0.50;;;;;;;4.89;44.40;102543.31;5104127;28;20031;-58
2023/04/18 02:49:42;;;;;;;0.50;0.50;;;;;;;4.91;44.46;102552.00;5104010;28;20024;-57
2023/04/18 02:52:07;;;;;;;0.50;0.50;;;;;;;4.81;44.37;102539.47;5103588;28;20069;-60
2023/04/18 02:54:33;;;;;;;0.45;0.45;;;;;;;4.86;44.36;102545.72;5104175;28;20115;-57
2023/04/18 02:56:58;;;;;;;0.40;0.40;;;;;;;4.86;44.22;102553.44;5103878;28;20419;-58
2023/04/18 02:59:24;;;;;;;0.40;0.40;;;;;;;4.84;44.15;102557.63;5103886;28;20080;-58
2023/04/18 03:01:49;;;;;;;0.50;0.50;;;;;;;4.81;44.08;102548.09;5103936;28;20031;-58
2023/04/18 03:04:15;;;;;;;0.95;0.95;;;;;;;4.80;44.34;102555.72;5104028;28;20042;-56
2023/04/18 03:06:40;;;;;;;0.73;0.73;;;;;;;4.83;44.34;102566.16;5103402;28;20213;-59
2023/04/18 03:09:06;;;;;;;0.50;0.50;;;;;;;4.76;44.68;102564.97;5103775;28;20073;-59
2023/04/18 03:11:31;;;;;;;0.50;0.50;;;;;;;4.68;44.67;102572.31;5103783;28;20031;-59
2023/04/18 03:13:57;;;;;;;0.50;0.50;;;;;;;4.64;44.72;102577.22;5103875;28;20028;-58
2023/04/18 03:16:22;;;;;;;0.50;0.50;;;;;;;4.57;44.65;102573.44;5103746;28;20051;-59
2023/04/18 03:18:47;;;;;;;0.52;0.52;;;;;;;4.50;44.93;102582.56;5103739;28;20046;-60
2023/04/18 03:21:13;;;;;;;0.50;0.50;;;;;;;4.43;45.32;102586.47;5103611;28;20031;-59
2023/04/18 03:23:39;;;;;;;0.45;0.45;;;;;;;4.41;45.45;102598.38;5103982;28;20036;-58
2023/04/18 03:26:06;;;;;;;0.50;0.50;;;;;;;4.38;45.87;102595.63;5103767;28;20069;-58
2023/04/18 03:28:31;;;;;;;0.57;0.57;;;;;;;4.30;46.36;102597.81;5103858;28;20024;-59
2023/04/18 03:30:56;;;;;;;1.50;1.42;;;;;;;4.25;46.48;102595.81;5103948;28;20039;-58
2023/04/18 03:33:22;;;;;;;0.50;0.50;;;;;;;4.15;46.96;102590.19;5085359;28;20357;-59
2023/04/18 03:35:48;;;;;;;0.43;0.43;;;;;;;3.95;47.06;102577.13;5085404;28;20038;-59
2023/04/18 03:38:13;;;;;;;0.43;0.43;;;;;;;3.99;47.68;102601.31;5085695;28;20024;-60
2023/04/18 03:40:40;;;;;;;0.50;0.50;;;;;;;3.96;47.67;102612.28;5106120;28;20027;-58
2023/04/18 03:43:06;;;;;;;0.50;0.50;;;;;;;3.92;48.00;102612.94;5089681;28;20103;-59
2023/04/18 03:45:32;;;;;;;1.35;1.25;;;;;;;3.93;47.42;102608.69;5107798;28;20411;-58
2023/04/18 03:47:57;;;;;;;0.50;0.50;;;;;;;3.93;47.43;102604.41;5107578;28;20030;-61
2023/04/18 03:50:24;;;;;;;0.50;0.50;;;;;;;3.93;47.35;102608.69;5107456;28;20028;-58
2023/04/18 03:52:51;;;;;;;0.50;0.50;;;;;;;3.94;47.32;102608.78;5107455;28;20020;-59
2023/04/18 03:55:17;;;;;;;0.50;0.50;;;;;;;3.95;47.37;102599.34;5107166;28;20031;-59
2023/04/18 03:57:43;;;;;;;0.50;0.50;;;;;;;3.95;47.36;102612.22;5107298;28;20020;-59
2023/04/18 04:00:09;;;;;;;0.60;0.60;;;;;;;3.90;47.57;102601.69;5107500;28;20043;-59
2023/04/18 04:02:35;;;;;;;0.50;0.50;;;;;;;4.01;47.36;102611.69;5106702;28;20050;-58
2023/04/18 04:05:01;;;;;;;0.50;0.50;;;;;;;3.99;47.22;102610.69;5106642;28;20016;-58
2023/04/18 04:07:26;;;;;;;0.73;0.73;;;;;;;4.04;47.22;102607.56;5107219;28;20036;-59
2023/04/18 04:09:52;;;;;;;0.50;0.50;;;;;;;4.10;46.78;102617.31;5107167;28;20354;-58
2023/04/18 04:12:17;;;;;;;0.50;0.50;;;;;;;4.14;47.17;102615.81;5107218;28;20457;-59
2023/04/18 04:14:43;;;;;;;0.50;0.50;;;;;;;4.10;47.54;102612.19;5106962;28;20043;-60
2023/04/18 04:17:08;;;;;;;5.57;3.92;;;;;;;4.16;47.29;102609.94;5106918;28;20024;-60
2023/04/18 04:19:34;;;;;;;0.57;0.57;;;;;;;4.21;47.19;102605.03;5104520;28;20114;-60
2023/04/18 04:21:59;;;;;;;0.40;0.40;;;;;;;4.27;47.31;102614.75;5106271;28;20020;-58
2023/04/18 04:24:24;;;;;;;0.60;0.60;;;;;;;4.36;47.64;102610.09;5106842;28;20519;-58
2023/04/18 04:26:50;;;;;;;0.50;0.50;;;;;;;4.53;48.03;102618.72;5106564;28;20042;-58
2023/04/18 04:29:16;;;;;;;0.50;0.50;;;;;;;4.85;47.97;102616.03;5106833;28;20012;-59
2023/04/18 04:31:41;;;;;;;0.50;0.50;;;;;;;5.21;48.09;102621.28;5088322;28;20035;-57
2023/04/18 04:34:07;;;;;;;0.40;0.40;;;;;;;5.67;47.92;102626.03;5106676;28;20402;-59
2023/04/18 04:36:33;;;;;;;0.50;0.50;;;;;;;6.10;47.62;102616.88;5106354;28;20028;-59
2023/04/18 04:38:59;;;;;;;0.40;0.40;;;;;;;6.45;47.24;102620.16;5106024;28;20031;-60
2023/04/18 04:41:24;;;;;;;0.43;0.43;;;;;;;6.91;47.17;102620.41;5106508;28;20084;-61
2023/04/18 04:43:51;;;;;;;0.52;0.52;;;;;;;7.42;47.10;102620.75;5105567;28;20040;-59
2023/04/18 04:46:18;;;;;;;0.40;0.40;;;;;;;7.99;46.78;102622.09;5106492;28;20016;-59
2023/04/18 04:48:44;;;;;;;0.50;0.50;;;;;;;8.47;46.19;102622.06;5106259;28;20535;-62
2023/04/18 04:51:09;;;;;;;0.47;0.47;;;;;;;9.01;45.95;102617.97;5104891;28;20037;-59
2023/04/18 04:53:34;;;;;;;0.50;0.50;;;;;;;9.43;44.87;102624.50;5105724;28;20028;-59
2023/04/18 04:56:00;;;;;;;2.60;2.40;;;;;;;9.76;45.14;102625.53;5106120;28;20024;-59
2023/04/18 04:58:26;;;;;;;0.40;0.40;;;;;;;10.20;44.52;102621.59;5106088;28;20020;-60
2023/04/18 05:00:52;;;;;;;0.40;0.40;;;;;;;10.66;44.53;102622.03;5106245;28;20028;-59
2023/04/18 05:03:18;;;;;;;0.40;0.40;;;;;;;11.13;43.78;102618.91;5106421;28;20472;-61
2023/04/18 05:05:44;;;;;;;0.40;0.40;;;;;;;11.60;43.20;102616.53;5106189;28;20016;-59
2023/04/18 05:08:09;;;;;;;0.40;0.40;;;;;;;12.04;42.81;102623.59;5105915;28;20050;-58
2023/04/18 05:10:37;;;;;;;0.40;0.40;;;;;;;12.33;41.96;102620.69;5106050;28;20175;-60
2023/04/18 05:13:03;;;;;;;0.40;0.40;;;;;;;12.54;40.84;102626.31;5105933;28;20019;-60
2023/04/18 05:15:29;;;;;;;0.45;0.45;;;;;;;12.52;40.37;102623.69;5104791;28;20023;-61
2023/04/18 05:17:55;;;;;;;0.30;0.30;;;;;;;12.34;40.99;102619.88;5105536;28;20498;-61
2023/04/18 05:20:21;;;;;;;0.30;0.30;;;;;;;12.53;40.26;102635.88;5105879;28;20083;-61
2023/04/18 05:22:46;;;;;;;0.30;0.30;;;;;;;12.47;40.55;102633.13;5105731;28;20020;-61
2023/04/18 05:25:12;;;;;;;0.30;0.30;;;;;;;12.62;39.24;102636.03;5105537;28;20027;-60
2023/04/18 05:27:37;;;;;;;0.77;0.77;;;;;;;12.50;39.84;102641.91;5105641;28;20175;-60
2023/04/18 05:30:03;;;;;;;0.50;0.50;;;;;;;12.24;38.54;102630.94;5105128;28;20031;-60
2023/04/18 05:32:29;;;;;;;0.35;0.35;;;;;;;12.05;38.62;102638.34;5105205;28;20044;-61
2023/04/18 05:34:57;;;;;;;0.30;0.30;;;;;;;12.18;39.38;102636.03;5105278;28;20020;-60
2023/04/18 05:37:22;;;;;;;0.35;0.35;;;;;;;12.06;37.83;102639.22;5105347;28;20032;-61
2023/04/18 05:39:48;;;;;;;0.35;0.35;;;;;;;11.93;37.74;102640.69;5105497;28;20031;-60
2023/04/18 05:42:13;;;;;;;0.90;0.90;;;;;;;11.72;37.47;102644.56;5087412;28;20026;-60
2023/04/18 05:44:39;;;;;;;0.63;0.63;;;;;;;11.35;37.40;102640.25;5105361;28;20050;-60
2023/04/18 05:47:04;;;;;;;0.40;0.40;;;;;;;11.27;37.26;102641.78;5104478;28;20027;-59
2023/04/18 05:49:30;;;;;;;1.98;1.85;;;;;;;11.15;37.14;102645.81;5105208;28;20020;-60
2023/04/18 05:51:56;;;;;;;0.40;0.40;;;;;;;11.00;37.33;102643.72;5105206;28;20127;-60
2023/04/18 05:54:23;;;;;;;4.03;2.38;;;;;;;11.02;37.79;102646.38;5104976;28;20257;-60
2023/04/18 05:56:49;;;;;;;1.10;1.10;;;;;;;11.08;37.51;102641.31;5105147;28;20050;-61
2023/04/18 05:59:15;;;;;;;0.60;0.60;;;;;;;11.48;37.85;102649.25;5105368;28;20032;-61
2023/04/18 06:01:41;;;;;;;0.98;0.98;;;;;;;12.05;38.11;102637.44;5105183;28;20051;-60
2023/04/18 06:04:07;;;;;;;0.40;0.40;;;;;;;12.64;37.27;102641.28;5104904;28;20026;-61
2023/04/18 06:06:33;;;;;;;0.40;0.40;;;;;;;13.02;36.15;102640.19;5105113;28;20587;-61
2023/04/18 06:08:59;;;;;;;0.73;0.73;;;;;;;13.07;36.25;102651.59;5104818;28;20097;-60
2023/04/18 06:11:25;;;;;;;0.30;0.30;;;;;;;13.25;36.38;102645.84;5105023;28;20468;-60
2023/04/18 06:13:50;;;;;;;0.30;0.30;;;;;;;13.55;36.64;102656.75;5104851;28;20032;-60
2023/04/18 06:16:16;;;;;;;0.30;0.30;;;;;;;14.15;36.47;102653.25;5104859;28;20028;-60
2023/04/18 06:18:41;;;;;;;1.20;1.20;;;;;;;14.79;35.46;102651.34;5102966;28;20022;-60
2023/04/18 06:21:06;;;;;;;0.32;0.32;;;;;;;14.98;35.18;102648.94;5104686;28;20075;-60
2023/04/18 06:23:32;;;;;;;0.30;0.30;;;;;;;15.14;34.55;102651.66;5104648;28;20027;-61
2023/04/18 06:25:58;;;;;;;0.43;0.43;;;;;;;15.17;33.37;102647.34;5104546;28;20012;-60
2023/04/18 06:28:23;;;;;;;0.40;0.40;;;;;;;15.23;33.66;102654.34;5104920;28;20039;-61
2023/04/18 06:30:49;;;;;;;0.93;0.93;;;;;;;15.17;32.21;102660.44;5104616;28;20016;-60
2023/04/18 06:33:14;;;;;;;0.30;0.30;;;;;;;14.92;32.31;102659.34;5104399;28;20373;-60
2023/04/18 06:35:40;;;;;;;0.30;0.30;;;;;;;14.65;32.07;102656.41;5104361;28;20024;-60
2023/04/18 06:38:06;;;;;;;0.30;0.30;;;;;;;14.78;32.87;102667.88;5104119;28;20028;-60
2023/04/18 06:40:31;;;;;;;0.50;0.50;;;;;;;14.73;32.70;102666.94;5104214;28;20076;-61
2023/04/18 06:42:57;;;;;;;0.30;0.30;;;;;;;14.66;32.65;102660.78;5104296;28;20157;-59
2023/04/18 06:45:22;;;;;;;0.30;0.30;;;;;;;14.74;32.17;102664.34;5104378;28;20045;-59
2023/04/18 06:47:48;;;;;;;0.40;0.40;;;;;;;14.98;31.74;102659.38;5104222;28;20050;-60
2023/04/18 06:50:13;;;;;;;0.30;0.30;;;;;;;15.22;31.85;102665.69;5104207;28;20032;-59
2023/04/18 06:52:43;;;;;;;0.40;0.40;;;;;;;15.53;31.97;102672.91;5104124;28;20028;-59
2023/04/18 06:55:10;;;;;;;0.28;0.28;;;;;;;15.47;31.04;102665.88;5104296;28;20062;-60
2023/04/18 06:57:36;;;;;;;0.30;0.30;;;;;;;15.42;31.28;102663.22;5104234;28;20027;-59
2023/04/18 07:00:04;;;;;;;0.30;0.30;;;;;;;15.84;31.76;102658.28;5104423;28;20028;-59
2023/04/18 07:02:29;;;;;;;0.50;0.50;;;;;;;15.91;30.43;102666.16;5104235;28;20028;-61
2023/04/18 07:04:55;;;;;;;0.30;0.30;;;;;;;15.43;29.92;102672.81;5104202;28;20050;-61
2023/04/18 07:07:21;;;;;;;0.30;0.30;;;;;;;15.26;30.94;102666.56;5103987;28;20024;-61
2023/04/18 07:09:47;;;;;;;0.50;0.50;;;;;;;15.69;30.95;102673.88;5104168;28;20020;-60
2023/04/18 07:12:12;;;;;;;0.30;0.30;;;;;;;15.77;29.93;102677.44;5104301;28;20101;-60
2023/04/18 07:14:38;;;;;;;0.30;0.30;;;;;;;15.55;30.04;102658.97;5104890;28;20032;-60
2023/04/18 07:17:03;;;;;;;0.60;0.60;;;;;;;15.67;30.21;102667.78;5108207;28;20024;-61
2023/04/18 07:19:29;;;;;;;0.73;0.73;;;;;;;15.53;29.93;102663.31;5108433;28;20020;-60
2023/04/18 07:21:55;;;;;;;0.30;0.30;;;;;;;15.36;29.45;102666.69;5089960;28;20116;-58
2023/04/18 07:24:22;;;;;;;0.60;0.60;;;;;;;15.27;30.20;102673.59;5108019;28;20079;-60
2023/04/18 07:26:48;;;;;;;0.28;0.28;;;;;;;15.56;30.59;102665.94;5108101;28;20023;-59
2023/04/18 07:29:13;;;;;;;0.30;0.30;;;;;;;15.58;29.58;102665.94;5108281;28;20038;-61
2023/04/18 07:31:39;;;;;;;0.50;0.50;;;;;;;15.32;29.48;102664.03;5107888;28;20481;-59
2023/04/18 07:34:04;;;;;;;0.30;0.30;;;;;;;15.47;29.12;102669.38;5107969;28;20035;-59
2023/04/18 07:36:30;;;;;;;0.30;0.30;;;;;;;15.29;28.93;102669.25;5107846;28;20024;-59
2023/04/18 07:38:56;;;;;;;0.40;0.40;;;;;;;15.24;29.06;102666.56;5089587;28;20027;-61
2023/04/18 07:41:21;;;;;;;0.55;0.55;;;;;;;15.25;29.08;102650.03;5108278;28;20063;-60
2023/04/18 07:43:47;;;;;;;0.40;0.40;;;;;;;15.38;28.93;102663.19;5107989;28;20024;-60
2023/04/18 07:46:12;;;;;;;0.20;0.20;;;;;;;15.50;28.94;102668.53;5107784;28;20031;-60
2023/04/18 07:48:38;;;;;;;0.30;0.30;;;;;;;15.52;28.40;102672.03;5107697;28;20024;-60
2023/04/18 07:51:03;;;;;;;0.50;0.50;;;;;;;15.35;28.30;102679.78;5107845;28;20024;-59
2023/04/18 07:53:28;;;;;;;0.38;0.38;;;;;;;15.31;28.69;102667.50;5107417;28;20026;-61
2023/04/18 07:55:54;;;;;;;0.30;0.30;;;;;;;15.42;28.40;102681.56;5107655;28;20050;-61
2023/04/18 07:58:20;;;;;;;0.30;0.30;;;;;;;15.09;28.26;102676.06;5107507;28;20046;-59
2023/04/18 08:00:45;;;;;;;0.30;0.30;;;;;;;14.98;28.66;102667.22;5107442;28;20055;-59
2023/04/18 08:03:11;;;;;;;0.30;0.30;;;;;;;14.97;28.26;102675.91;5089283;28;20047;-60
2023/04/18 08:05:41;;;;;;;0.30;0.30;;;;;;;14.82;28.56;102684.50;5107686;28;20012;-60
2023/04/18 08:08:08;;;;;;;0.30;0.30;;;;;;;14.70;28.41;102673.03;5107124;28;20403;-60
2023/04/18 08:10:34;;;;;;;0.30;0.30;;;;;;;14.57;28.71;102669.38;5089478;28;20083;-60
2023/04/18 08:13:00;;;;;;;0.30;0.30;;;;;;;14.48;28.56;102690.19;5107247;28;20031;-59
2023/04/18 08:15:31;;;;;;;0.30;0.30;;;;;;;14.40;28.79;102673.53;5107176;28;20036;-60
2023/04/18 08:17:57;;;;;;;0.40;0.40;;;;;;;14.60;29.33;102677.28;5107175;28;20023;-58
2023/04/18 08:20:23;;;;;;;0.30;0.30;;;;;;;14.95;28.66;102672.44;5107171;28;20032;-60
2023/04/18 08:22:48;;;;;;;0.40;0.40;;;;;;;15.03;28.32;102669.88;5106688;28;20310;-59
2023/04/18 08:25:15;;;;;;;0.30;0.30;;;;;;;14.84;28.51;102670.56;5106878;28;20024;-60
2023/04/18 08:27:40;;;;;;;0.30;0.30;;;;;;;14.96;28.71;102663.72;5107054;28;20090;-59
2023/04/18 08:30:06;;;;;;;0.40;0.40;;;;;;;15.13;28.17;102670.84;5107047;28;20048;-60
2023/04/18 08:32:32;;;;;;;0.30;0.30;;;;;;;14.94;28.15;102675.91;5085250;28;20049;-59
2023/04/18 08:34:57;;;;;;;0.70;0.70;;;;;;;14.97;28.31;102675.91;5086651;28;20380;-61
2023/04/18 08:37:23;;;;;;;0.30;0.30;;;;;;;15.13;28.26;102681.31;5086358;28;20434;-60
2023/04/18 08:39:49;;;;;;;0.30;0.30;;;;;;;15.13;28.39;102670.84;5086451;28;20031;-61
2023/04/18 08:42:18;;;;;;;0.30;0.30;;;;;;;15.47;28.42;102686.81;5086376;28;20043;-59
2023/04/18 08:44:45;;;;;;;0.30;0.30;;;;;;;15.85;28.17;102673.13;5086476;28;20021;-60
2023/04/18 08:47:11;;;;;;;0.30;0.30;;;;;;;16.16;27.85;102668.94;5086264;28;20025;-61
2023/04/18 08:49:37;;;;;;;0.40;0.40;;;;;;;16.32;27.99;102662.91;5086233;28;20048;-60
2023/04/18 08:52:10;;;;;;;0.60;0.60;;;;;;;16.69;27.01;102666.50;5086345;28;20108;-59
2023/04/18 08:54:37;;;;;;;0.30;0.30;;;;;;;16.59;26.98;102669.09;5085956;28;20024;-60
2023/04/18 08:57:04;;;;;;;0.30;0.30;;;;;;;16.72;26.85;102656.00;5086063;28;20030;-60
2023/04/18 08:59:31;;;;;;;0.30;0.30;;;;;;;16.85;26.92;102659.53;5085973;28;20049;-60
2023/04/18 09:01:57;;;;;;;0.30;0.30;;;;;;;16.75;26.45;102645.50;5086254;28;20020;-59
2023/04/18 09:04:39;;;;;;;0.40;0.40;;;;;;;16.44;26.93;102663.78;5086128;28;20031;-60
2023/04/18 09:07:12;;;;;;;;;;;;;;;16.35;27.07;102668.16;5085045;28;20031;-60
2023/04/18 09:09:56;;;;;;;0.30;0.30;;;;;;;16.25;27.06;102668.09;5085815;28;19980;-60
2023/04/18 09:12:26;;;;;;;0.30;0.30;;;;;;;16.18;26.84;102659.34;5086009;28;20039;-60
2023/04/18 09:15:08;;;;;;;0.30;0.30;;;;;;;15.95;27.40;102653.09;5085834;28;20025;-60
2023/04/18 09:17:42;;;;;;;0.40;0.40;;;;;;;16.22;27.87;102654.13;5085566;28;20447;-60
2023/04/18 09:20:09;;;;;;;0.30;0.30;;;;;;;16.69;27.02;102667.34;5085729;28;20044;-60
2023/04/18 09:23:02;;;;;;;0.38;0.38;;;;;;;16.54;27.67;102649.84;5084127;28;20024;-60
2023/04/18 09:25:37;;;;;;;0.30;0.30;;;;;;;17.17;27.18;102647.31;5083724;28;20025;-60
2023/04/18 09:28:21;;;;;;;0.30;0.30;;;;;;;17.48;26.61;102639.41;5085521;28;20059;-58
2023/04/18 09:30:47;;;;;;;0.30;0.30;;;;;;;17.42;26.25;102678.81;5085737;28;20020;-59
2023/04/18 09:33:13;;;;;;;0.30;0.30;;;;;;;17.07;26.07;102657.78;5099677;28;20099;-60
2023/04/18 09:35:38;;;;;;;0.25;0.25;;;;;;;16.74;26.74;102654.25;5105761;28;20032;-59
2023/04/18 09:38:06;;;;;;;0.30;0.30;;;;;;;16.47;27.51;102650.69;5104798;28;20404;-59
2023/04/18 09:40:32;;;;;;;0.40;0.40;;;;;;;16.63;27.86;102650.75;5105520;28;20049;-59
2023/04/18 09:42:57;;;;;;;0.40;0.40;;;;;;;17.50;27.66;102645.53;5105411;28;20095;-60
2023/04/18 09:45:24;;;;;;;0.30;0.30;;;;;;;18.27;26.21;102646.19;5105614;28;20031;-60
2023/04/18 09:47:51;;;;;;;0.30;0.30;;;;;;;18.44;25.08;102637.31;5105240;28;20020;-60
2023/04/18 09:50:17;;;;;;;0.20;0.20;;;;;;;18.38;25.27;102642.63;5105549;28;20020;-60
2023/04/18 09:52:44;;;;;;;0.30;0.30;;;;;;;18.29;25.17;102657.56;5105122;28;20016;-60
2023/04/18 09:55:17;;;;;;;0.20;0.20;;;;;;;18.24;25.37;102638.31;5105305;28;20026;-59
2023/04/18 09:57:47;;;;;;;0.30;0.30;;;;;;;18.43;25.29;102647.00;5105161;28;20060;-59
2023/04/18 10:00:23;;;;;;;0.25;0.25;;;;;;;18.41;25.17;102635.59;5105129;28;20024;-60
2023/04/18 10:03:08;;;;;;;0.20;0.20;;;;;;;18.70;24.68;102633.66;5105248;28;20085;-61
2023/04/18 10:05:37;;;;;;;0.30;0.30;;;;;;;18.70;24.48;102637.19;5105367;28;20020;-62
2023/04/18 10:08:03;;;;;;;0.20;0.20;;;;;;;18.77;24.51;102622.19;5104828;28;20032;-59
2023/04/18 10:10:28;;;;;;;0.20;0.20;;;;;;;19.05;24.35;102632.53;5104997;28;20020;-60
2023/04/18 10:12:56;;;;;;;0.20;0.20;;;;;;;19.35;24.19;102621.72;5105076;28;20024;-60
2023/04/18 10:15:24;;;;;;;0.22;0.22;;;;;;;19.56;23.37;102623.28;5104906;28;20027;-59
2023/04/18 10:17:49;;;;;;;0.20;0.20;;;;;;;19.39;22.25;102668.22;5104762;28;20030;-59
2023/04/18 10:20:18;;;;;;;0.20;0.20;;;;;;;18.48;23.49;102636.44;5104814;28;20023;-60
2023/04/18 10:22:45;;;;;;;0.30;0.30;;;;;;;18.19;23.68;102619.06;5104609;28;20471;-60
2023/04/18 10:25:10;;;;;;;0.28;0.28;;;;;;;17.94;24.13;102634.91;5086841;28;20069;-60
2023/04/18 10:27:48;;;;;;;0.28;0.28;;;;;;;18.12;24.39;102633.09;5104504;28;20422;-60
2023/04/18 10:30:17;;;;;;;0.30;0.30;;;;;;;18.06;24.17;102626.97;5104762;28;20491;-60
2023/04/18 10:32:45;;;;;;;0.30;0.30;;;;;;;18.23;24.61;102628.66;5104450;28;20059;-59
2023/04/18 10:35:11;;;;;;;0.20;0.20;;;;;;;18.48;24.28;102623.28;5104548;28;20020;-59
2023/04/18 10:37:50;;;;;;;0.30;0.30;;;;;;;19.09;23.57;102628.09;5104310;28;20020;-59
2023/04/18 10:40:16;;;;;;;0.25;0.25;;;;;;;18.92;23.69;102599.28;5104721;28;20045;-60
2023/04/18 10:42:50;;;;;;;0.20;0.20;;;;;;;19.19;23.71;102666.66;5104594;28;20076;-60
2023/04/18 10:45:22;;;;;;;0.20;0.20;;;;;;;18.85;23.34;102613.38;5104454;28;20027;-60
2023/04/18 10:47:48;;;;;;;0.20;0.20;;;;;;;18.86;23.21;102609.84;5104221;28;20020;-60
2023/04/18 10:50:15;;;;;;;0.30;0.30;;;;;;;18.73;23.41;102631.00;5103752;28;20031;-59
2023/04/18 10:52:41;;;;;;;0.20;0.20;;;;;;;18.28;24.08;102619.00;5104179;28;20081;-61
2023/04/18 10:55:08;;;;;;;0.22;0.22;;;;;;;18.08;24.25;102603.31;5104305;28;20027;-59
2023/04/18 10:57:45;;;;;;;0.30;0.30;;;;;;;17.93;24.58;102613.03;5104186;28;20032;-59
2023/04/18 11:00:12;;;;;;;0.30;0.30;;;;;;;17.89;24.39;102620.91;5104345;28;20049;-60
2023/04/18 11:02:39;;;;;;;0.30;0.30;;;;;;;17.73;24.81;102620.09;5104122;28;20024;-60
2023/04/18 11:05:06;;;;;;;0.30;0.30;;;;;;;17.37;25.08;102612.28;5104104;28;20050;-59
2023/04/18 11:07:34;;;;;;;0.30;0.30;;;;;;;17.37;25.45;102607.03;5103806;28;20024;-59
2023/04/18 11:10:00;;;;;;;0.30;0.30;;;;;;;17.65;24.82;102554.47;5104104;28;20028;-60
2023/04/18 11:12:32;;;;;;;0.30;0.30;;;;;;;17.59;25.18;102606.13;5104231;28;20032;-62
2023/04/18 11:14:58;;;;;;;0.35;0.35;;;;;;;17.74;25.17;102593.81;5104304;28;20024;-59
2023/04/18 11:17:24;;;;;;;0.20;0.20;;;;;;;18.04;25.12;102588.44;5103906;28;20499;-60
2023/04/18 11:19:59;;;;;;;0.30;0.30;;;;;;;18.53;24.97;102583.81;5103961;28;20028;-60
2023/04/18 11:22:25;;;;;;;0.30;0.30;;;;;;;18.79;23.98;102582.72;5085765;28;20031;-59
2023/04/18 11:24:50;;;;;;;0.32;0.32;;;;;;;18.74;23.91;102579.28;5103967;28;20111;-59
2023/04/18 11:27:16;;;;;;;0.30;0.30;;;;;;;18.25;24.25;102589.22;5104020;28;20024;-61